Time;durP1;ratioP1;P1;durP2;ratioP2;P2;SDS_P1;SDS_P2;PMS_P1;PMS_P2;Temp;Humidity;BMP_temperature;BMP_pressure;BME280_temperature;BME280_humidity;BME280_pressure;Samples;Min_cycle;Max_cycle;Signal;HPM_P1;HPM_P2
2022/04/10 00:01:32;;;;;;;15.00;5.15;;;2.90;99.90;;;;;;5070213;28;20769;-65
2022/04/10 00:03:58;;;;;;;14.18;5.13;;;2.90;99.90;;;;;;5070877;28;20623;-65
2022/04/10 00:06:25;;;;;;;19.05;6.07;;;2.80;99.90;;;;;;5068062;28;20063;-65
2022/04/10 00:08:50;;;;;;;15.40;5.35;;;2.80;99.90;;;;;;5070230;28;20083;-64
2022/04/10 00:11:17;;;;;;;23.23;5.85;;;2.80;99.90;;;;;;5069576;28;20080;-64
2022/04/10 00:13:43;;;;;;;16.90;5.70;;;2.80;99.90;;;;;;5070521;28;20041;-64
2022/04/10 00:16:09;;;;;;;15.50;5.43;;;2.80;99.90;;;;;;5069662;28;20397;-63
2022/04/10 00:18:36;;;;;;;18.58;4.22;;;2.80;99.90;;;;;;5068872;28;20033;-64
2022/04/10 00:21:02;;;;;;;31.50;6.38;;;2.80;99.90;;;;;;5069200;28;20040;-65
2022/04/10 00:23:28;;;;;;;17.10;5.78;;;2.80;99.90;;;;;;5068900;28;20047;-64
2022/04/10 00:25:53;;;;;;;28.55;6.70;;;2.80;99.90;;;;;;5070150;28;20045;-64
2022/04/10 00:28:19;;;;;;;27.27;5.93;;;2.80;99.90;;;;;;5069655;28;20045;-65
2022/04/10 00:30:45;;;;;;;24.73;5.28;;;2.80;99.90;;;;;;5070573;28;20051;-65
2022/04/10 00:33:11;;;;;;;20.95;5.75;;;2.70;99.90;;;;;;5069660;28;20052;-65
2022/04/10 00:35:37;;;;;;;20.60;5.35;;;2.70;99.90;;;;;;5069597;28;20052;-64
2022/04/10 00:38:02;;;;;;;15.50;5.25;;;2.70;99.90;;;;;;5038210;28;20103;-65
2022/04/10 00:40:28;;;;;;;26.58;6.72;;;2.70;99.90;;;;;;5069488;28;20040;-64
2022/04/10 00:42:54;;;;;;;18.10;6.15;;;2.70;99.90;;;;;;5077152;28;20047;-64
2022/04/10 00:45:20;;;;;;;29.02;6.97;;;2.70;99.90;;;;;;5054884;28;20053;-65
2022/04/10 00:47:47;;;;;;;22.27;6.90;;;2.70;99.90;;;;;;5070126;28;20060;-65
2022/04/10 00:50:14;;;;;;;21.52;5.70;;;2.70;99.90;;;;;;5068554;28;21065;-65
2022/04/10 00:52:42;;;;;;;31.45;7.55;;;2.70;99.90;;;;;;5050029;28;20097;-64
2022/04/10 00:55:09;;;;;;;21.45;5.60;;;2.60;99.90;;;;;;5050053;28;20107;-65
2022/04/10 00:57:35;;;;;;;25.98;5.30;;;2.60;99.90;;;;;;5056024;28;20151;-64
2022/04/10 01:00:01;;;;;;;19.88;5.55;;;2.60;99.90;;;;;;5050333;28;20279;-64
2022/04/10 01:02:27;;;;;;;18.55;5.07;;;2.60;99.90;;;;;;5059996;28;20044;-64
2022/04/10 01:04:54;;;;;;;20.98;7.50;;;2.60;99.90;;;;;;5065452;28;20041;-65
2022/04/10 01:07:20;;;;;;;18.13;6.32;;;2.60;99.90;;;;;;5069084;28;20043;-64
2022/04/10 01:09:46;;;;;;;16.70;5.30;;;2.50;99.90;;;;;;5069195;28;20159;-64
2022/04/10 01:12:12;;;;;;;27.25;5.45;;;2.50;99.90;;;;;;5069189;28;20443;-65
2022/04/10 01:14:40;;;;;;;18.55;5.25;;;2.50;99.90;;;;;;5064789;28;20044;-65
2022/04/10 01:17:10;;;;;;;20.98;5.85;;;2.50;99.90;;;;;;5068776;28;20127;-65
2022/04/10 01:19:38;;;;;;;19.45;5.63;;;2.40;99.90;;;;;;5068689;28;20043;-65
2022/04/10 01:22:05;;;;;;;19.17;5.70;;;2.40;99.90;;;;;;5069175;28;20132;-64
2022/04/10 01:24:37;;;;;;;20.48;6.78;;;2.40;99.90;;;;;;5069050;28;20521;-64
2022/04/10 01:27:03;;;;;;;13.30;5.00;;;2.40;99.90;;;;;;5069248;28;20055;-64
2022/04/10 01:29:29;;;;;;;24.40;5.90;;;2.40;99.90;;;;;;5063785;28;20045;-64
2022/04/10 01:31:56;;;;;;;30.00;6.30;;;2.30;99.90;;;;;;5069418;28;20047;-64
2022/04/10 01:34:22;;;;;;;23.35;5.82;;;2.30;99.90;;;;;;5068381;28;20525;-64
2022/04/10 01:36:48;;;;;;;26.55;7.90;;;2.30;99.90;;;;;;5068716;28;20058;-64
2022/04/10 01:39:15;;;;;;;25.70;5.70;;;2.30;99.90;;;;;;5069109;28;20501;-64
2022/04/10 01:41:41;;;;;;;19.75;5.63;;;2.20;99.90;;;;;;5067342;28;20445;-64
2022/04/10 01:44:08;;;;;;;15.85;5.50;;;2.20;99.90;;;;;;5067303;28;20048;-64
2022/04/10 01:46:35;;;;;;;26.60;4.90;;;2.20;99.90;;;;;;5067756;28;20056;-64
2022/04/10 01:49:02;;;;;;;21.13;6.07;;;2.20;99.90;;;;;;5068191;28;20040;-64
2022/04/10 01:51:28;;;;;;;18.23;5.20;;;2.20;99.90;;;;;;5050818;28;20052;-65
2022/04/10 01:53:54;;;;;;;21.73;5.93;;;2.20;99.90;;;;;;5068836;28;20045;-64
2022/04/10 01:56:21;;;;;;;24.67;4.80;;;2.10;99.90;;;;;;5068341;28;20524;-64
2022/04/10 01:58:48;;;;;;;34.95;6.72;;;2.10;99.90;;;;;;5068773;28;20041;-64
2022/04/10 02:01:16;;;;;;;25.75;6.57;;;2.10;99.90;;;;;;5067415;28;20036;-64
2022/04/10 02:03:43;;;;;;;17.95;6.25;;;2.10;99.90;;;;;;5055069;28;20497;-64
2022/04/10 02:06:11;;;;;;;27.08;6.28;;;2.10;99.90;;;;;;5047942;28;20124;-64
2022/04/10 02:08:37;;;;;;;19.52;6.07;;;2.10;99.90;;;;;;5049049;28;20178;-64
2022/04/10 02:11:14;;;;;;;14.07;5.22;;;2.10;99.90;;;;;;5061337;28;20111;-64
2022/04/10 02:13:40;;;;;;;11.65;5.50;;;2.10;99.90;;;;;;5067946;28;20099;-64
2022/04/10 02:16:08;;;;;;;16.27;7.18;;;2.10;99.90;;;;;;5061524;28;20052;-64
2022/04/10 02:18:34;;;;;;;17.08;6.40;;;2.10;99.90;;;;;;5061392;28;20086;-64
2022/04/10 02:21:00;;;;;;;31.40;6.53;;;2.10;99.90;;;;;;5042164;28;20048;-64
2022/04/10 02:23:26;;;;;;;16.05;5.88;;;2.10;99.90;;;;;;5048787;28;20032;-63
2022/04/10 02:25:51;;;;;;;13.57;5.32;;;2.10;99.90;;;;;;5064386;28;20497;-64
2022/04/10 02:28:17;;;;;;;18.02;5.95;;;2.10;99.90;;;;;;5067622;28;20059;-64
2022/04/10 02:30:42;;;;;;;18.80;5.97;;;2.00;99.90;;;;;;5067793;28;20849;-64
2022/04/10 02:33:08;;;;;;;21.70;5.88;;;2.00;99.90;;;;;;5068605;28;20106;-64
2022/04/10 02:35:34;;;;;;;16.90;4.93;;;2.00;99.90;;;;;;5067206;28;20072;-64
2022/04/10 02:37:59;;;;;;;25.67;5.68;;;2.00;99.90;;;;;;5067077;28;20050;-64
2022/04/10 02:40:25;;;;;;;20.35;6.20;;;2.00;99.90;;;;;;5067917;28;20056;-65
2022/04/10 02:42:50;;;;;;;33.60;7.13;;;1.90;99.90;;;;;;5067449;28;20514;-64
2022/04/10 02:45:16;;;;;;;25.92;6.32;;;2.00;99.90;;;;;;5064835;28;20132;-64
2022/04/10 02:47:42;;;;;;;20.23;6.05;;;1.90;99.90;;;;;;5046626;28;20045;-65
2022/04/10 02:50:08;;;;;;;13.40;5.65;;;1.90;99.90;;;;;;5059662;28;20083;-64
2022/04/10 02:52:34;;;;;;;21.35;6.68;;;1.90;99.90;;;;;;5066447;28;20505;-64
2022/04/10 02:55:00;;;;;;;28.58;6.85;;;1.90;99.90;;;;;;5047537;28;20037;-64
2022/04/10 02:57:25;;;;;;;26.95;7.13;;;1.90;99.90;;;;;;5046919;28;20146;-64
2022/04/10 02:59:51;;;;;;;29.23;8.40;;;1.90;99.90;;;;;;5060082;28;20390;-64
2022/04/10 03:02:17;;;;;;;16.50;6.25;;;1.90;99.90;;;;;;5069431;28;20044;-64
2022/04/10 03:04:43;;;;;;;18.65;6.03;;;1.90;99.90;;;;;;5071299;28;20125;-64
2022/04/10 03:07:08;;;;;;;30.77;6.25;;;1.90;99.90;;;;;;5070966;28;20094;-65
2022/04/10 03:09:34;;;;;;;20.67;6.63;;;1.90;99.90;;;;;;5071878;28;20090;-64
2022/04/10 03:12:00;;;;;;;24.02;6.10;;;1.80;99.90;;;;;;5071661;28;20041;-64
2022/04/10 03:14:25;;;;;;;25.77;7.70;;;1.80;99.90;;;;;;5071324;28;20375;-65
2022/04/10 03:16:51;;;;;;;26.35;6.80;;;1.80;99.90;;;;;;5069605;28;20132;-64
2022/04/10 03:19:17;;;;;;;22.55;6.75;;;1.90;99.90;;;;;;5070879;28;20054;-64
2022/04/10 03:21:42;;;;;;;17.80;5.80;;;1.90;99.90;;;;;;5053253;28;20056;-64
2022/04/10 03:24:08;;;;;;;22.17;6.75;;;1.90;99.90;;;;;;5070995;28;20071;-64
2022/04/10 03:26:34;;;;;;;25.85;6.20;;;1.90;99.90;;;;;;5071260;28;20076;-65
2022/04/10 03:29:00;;;;;;;20.52;7.18;;;1.90;99.90;;;;;;5069733;28;20120;-64
2022/04/10 03:31:26;;;;;;;23.88;6.57;;;1.90;99.90;;;;;;5069087;28;20118;-64
2022/04/10 03:33:52;;;;;;;29.52;6.65;;;1.90;99.90;;;;;;5068942;28;20056;-65
2022/04/10 03:36:17;;;;;;;28.73;6.35;;;1.90;99.90;;;;;;5059477;28;20481;-64
2022/04/10 03:38:43;;;;;;;22.63;6.35;;;2.00;99.90;;;;;;5053539;28;20054;-65
2022/04/10 03:41:09;;;;;;;22.65;5.70;;;2.00;99.90;;;;;;5070598;28;20137;-64
2022/04/10 03:43:35;;;;;;;13.13;5.63;;;2.10;99.90;;;;;;5071194;28;20037;-64
2022/04/10 03:46:01;;;;;;;32.88;6.43;;;2.20;99.90;;;;;;5063406;28;20553;-65
2022/04/10 03:48:28;;;;;;;24.88;7.10;;;2.20;99.90;;;;;;5064650;28;20572;-64
2022/04/10 03:50:54;;;;;;;34.75;7.13;;;2.20;99.90;;;;;;5070640;28;20032;-65
2022/04/10 03:53:19;;;;;;;14.80;5.55;;;2.20;99.90;;;;;;5069161;28;20120;-65
2022/04/10 03:55:45;;;;;;;24.48;6.60;;;2.20;99.90;;;;;;5070714;28;20047;-65
2022/04/10 03:58:11;;;;;;;27.73;6.72;;;2.30;99.90;;;;;;5070653;28;20833;-65
2022/04/10 04:00:37;;;;;;;17.15;5.43;;;2.20;99.90;;;;;;5051949;28;20071;-65
2022/04/10 04:03:02;;;;;;;22.55;6.57;;;2.30;99.90;;;;;;5064708;28;20044;-65
2022/04/10 04:05:29;;;;;;;18.33;6.07;;;2.20;99.90;;;;;;5070165;28;20032;-67
2022/04/10 04:07:55;;;;;;;19.15;5.03;;;2.30;99.90;;;;;;5070712;28;20051;-65
2022/04/10 04:10:21;;;;;;;26.00;6.22;;;2.30;99.90;;;;;;5070127;28;20049;-65
2022/04/10 04:12:47;;;;;;;22.48;6.25;;;2.30;99.90;;;;;;5070448;28;20486;-65
2022/04/10 04:15:12;;;;;;;18.05;5.57;;;2.40;99.90;;;;;;5070235;28;20409;-65
2022/04/10 04:17:38;;;;;;;21.60;5.38;;;2.40;99.90;;;;;;5067566;28;20052;-65
2022/04/10 04:20:08;;;;;;;21.77;4.60;;;2.40;99.90;;;;;;5064066;28;20075;-65
2022/04/10 04:22:34;;;;;;;14.20;4.53;;;2.40;99.90;;;;;;5068759;28;20041;-65
2022/04/10 04:25:00;;;;;;;11.50;4.45;;;2.40;99.90;;;;;;5070222;28;20045;-64
2022/04/10 04:27:26;;;;;;;18.85;4.95;;;2.40;99.90;;;;;;5066258;28;20093;-64
2022/04/10 04:29:52;;;;;;;15.10;3.95;;;2.40;99.90;;;;;;5063869;28;20040;-65
2022/04/10 04:32:18;;;;;;;15.02;4.57;;;2.40;99.90;;;;;;5070045;28;20041;-65
2022/04/10 04:34:43;;;;;;;17.88;4.68;;;2.40;99.90;;;;;;5068018;28;20658;-65
2022/04/10 04:37:09;;;;;;;13.55;3.97;;;2.40;99.90;;;;;;5066443;28;20056;-65
2022/04/10 04:39:35;;;;;;;10.15;3.45;;;2.40;99.90;;;;;;5069854;28;20074;-65
2022/04/10 04:42:01;;;;;;;8.02;3.40;;;2.40;99.90;;;;;;5052533;28;20162;-63
2022/04/10 04:44:27;;;;;;;9.73;4.10;;;2.50;99.90;;;;;;5070165;28;20054;-65
2022/04/10 04:46:54;;;;;;;7.68;3.08;;;2.50;99.90;;;;;;5069852;28;20048;-65
2022/04/10 04:49:20;;;;;;;10.43;3.60;;;2.50;99.90;;;;;;5049652;28;20048;-64
2022/04/10 04:51:46;;;;;;;15.32;3.35;;;2.40;99.90;;;;;;5068747;28;20430;-65
2022/04/10 04:54:11;;;;;;;9.52;3.45;;;2.40;99.90;;;;;;5069565;28;20549;-65
2022/04/10 04:56:37;;;;;;;5.43;2.65;;;2.40;99.90;;;;;;5069600;28;20049;-64
2022/04/10 04:59:02;;;;;;;7.65;2.95;;;2.40;99.90;;;;;;5065939;28;20063;-65
2022/04/10 05:01:29;;;;;;;9.50;2.88;;;2.40;99.90;;;;;;5068617;28;20040;-65
2022/04/10 05:03:55;;;;;;;7.60;3.60;;;2.40;99.90;;;;;;5068690;28;20040;-65
2022/04/10 05:06:21;;;;;;;9.23;3.58;;;2.40;99.90;;;;;;5069331;28;20610;-65
2022/04/10 05:08:46;;;;;;;9.65;3.15;;;2.40;99.90;;;;;;5064151;28;20052;-65
2022/04/10 05:11:13;;;;;;;10.10;3.17;;;2.30;99.90;;;;;;5069523;28;20036;-65
2022/04/10 05:13:40;;;;;;;10.85;3.47;;;2.40;99.90;;;;;;5068064;28;20123;-65
2022/04/10 05:16:06;;;;;;;8.65;3.10;;;2.30;99.90;;;;;;5067621;28;20041;-65
2022/04/10 05:18:32;;;;;;;11.27;3.85;;;2.30;99.90;;;;;;5050422;28;20414;-65
2022/04/10 05:20:58;;;;;;;12.85;4.07;;;2.30;99.90;;;;;;5049532;28;20037;-65
2022/04/10 05:23:23;;;;;;;13.18;3.55;;;2.40;99.90;;;;;;5067464;28;20528;-65
2022/04/10 05:25:50;;;;;;;7.57;3.70;;;2.50;99.90;;;;;;5068387;28;20144;-65
2022/04/10 05:28:16;;;;;;;11.95;3.40;;;2.60;99.90;;;;;;5068843;28;20049;-65
2022/04/10 05:30:42;;;;;;;17.95;3.60;;;2.90;99.90;;;;;;5069586;28;20056;-65
2022/04/10 05:33:09;;;;;;;6.82;2.92;;;3.10;99.90;;;;;;5069255;28;20490;-65
2022/04/10 05:35:35;;;;;;;10.35;3.05;;;3.30;99.90;;;;;;5067948;28;20139;-66
2022/04/10 05:38:01;;;;;;;10.13;3.17;;;3.40;99.90;;;;;;5069389;28;20633;-66
2022/04/10 05:40:27;;;;;;;8.18;3.05;;;3.50;99.90;;;;;;5068982;28;20174;-66
2022/04/10 05:42:52;;;;;;;12.07;4.13;;;3.50;99.90;;;;;;5067682;28;20175;-66
2022/04/10 05:45:18;;;;;;;13.80;3.20;;;3.50;99.90;;;;;;5067651;28;20045;-66
2022/04/10 05:47:44;;;;;;;17.85;2.92;;;3.60;99.90;;;;;;5055045;28;20559;-66
2022/04/10 05:50:11;;;;;;;16.27;3.78;;;3.60;99.90;;;;;;5067898;28;20040;-66
2022/04/10 05:52:41;;;;;;;8.75;3.30;;;3.70;99.90;;;;;;5067590;28;20086;-66
2022/04/10 05:55:08;;;;;;;8.68;2.50;;;3.70;99.90;;;;;;5067225;28;20045;-66
2022/04/10 05:57:34;;;;;;;5.25;3.20;;;3.70;99.90;;;;;;5068280;28;20987;-66
2022/04/10 06:00:00;;;;;;;8.57;3.55;;;3.70;99.90;;;;;;5068437;28;20513;-66
2022/04/10 06:02:26;;;;;;;11.85;3.65;;;3.70;99.90;;;;;;5068259;28;20044;-66
2022/04/10 06:04:52;;;;;;;8.60;2.65;;;3.70;99.90;;;;;;5068791;28;20041;-66
2022/04/10 06:07:17;;;;;;;12.45;4.50;;;3.70;99.90;;;;;;5065830;28;20037;-66
2022/04/10 06:09:43;;;;;;;12.50;3.75;;;3.80;99.90;;;;;;5067198;28;20040;-66
2022/04/10 06:12:09;;;;;;;14.75;3.72;;;3.80;99.90;;;;;;5068098;28;20570;-66
2022/04/10 06:14:35;;;;;;;17.13;4.10;;;3.90;99.90;;;;;;5068551;28;20045;-66
2022/04/10 06:17:00;;;;;;;17.90;3.60;;;4.00;99.90;;;;;;5068142;28;20417;-66
2022/04/10 06:19:27;;;;;;;9.15;3.40;;;4.20;99.90;;;;;;5063234;28;20045;-66
2022/04/10 06:21:53;;;;;;;9.48;3.78;;;4.40;99.90;;;;;;5068410;28;20051;-66
2022/04/10 06:24:21;;;;;;;8.85;3.70;;;4.50;99.90;;;;;;5061031;28;20097;-66
2022/04/10 06:26:49;;;;;;;11.57;4.28;;;4.60;99.90;;;;;;5067007;28;20068;-65
2022/04/10 06:29:20;;;;;;;12.63;3.37;;;4.70;99.90;;;;;;5066993;28;20040;-66
2022/04/10 06:31:47;;;;;;;14.13;3.85;;;4.90;99.90;;;;;;5067315;28;20764;-65
2022/04/10 06:34:14;;;;;;;7.80;3.47;;;5.00;99.90;;;;;;5068547;28;20044;-65
2022/04/10 06:36:40;;;;;;;17.70;3.30;;;5.10;99.90;;;;;;5070713;28;20068;-65
2022/04/10 06:39:06;;;;;;;6.47;2.58;;;5.20;99.90;;;;;;5071532;28;20045;-65
2022/04/10 06:41:32;;;;;;;9.98;2.78;;;5.30;99.90;;;;;;5070120;28;20048;-65
2022/04/10 06:43:58;;;;;;;7.05;2.35;;;5.40;99.90;;;;;;5068127;28;20128;-65
2022/04/10 06:46:26;;;;;;;3.80;2.53;;;5.40;99.90;;;;;;5077639;28;20044;-65
2022/04/10 06:48:52;;;;;;;8.50;2.25;;;5.60;99.90;;;;;;5071408;28;20643;-64
2022/04/10 06:51:18;;;;;;;8.73;2.60;;;5.70;99.90;;;;;;5071793;28;20116;-65
2022/04/10 06:53:46;;;;;;;8.23;2.50;;;5.80;99.90;;;;;;5070310;28;20124;-65
2022/04/10 06:56:11;;;;;;;13.25;3.17;;;6.00;99.90;;;;;;5071442;28;20056;-64
2022/04/10 06:58:37;;;;;;;8.05;2.50;;;6.10;99.90;;;;;;5071908;28;20701;-65
2022/04/10 07:01:03;;;;;;;15.32;3.28;;;6.30;99.90;;;;;;5063409;28;20037;-65
2022/04/10 07:03:29;;;;;;;10.25;3.65;;;6.40;99.90;;;;;;5050364;28;20044;-65
2022/04/10 07:05:55;;;;;;;5.95;2.67;;;6.70;99.90;;;;;;5071113;28;20036;-65
2022/04/10 07:08:20;;;;;;;8.68;2.95;;;6.90;99.90;;;;;;5071652;28;20051;-65
2022/04/10 07:10:46;;;;;;;8.93;2.97;;;6.80;99.90;;;;;;5071937;28;20057;-65
2022/04/10 07:13:19;;;;;;;12.63;2.85;;;6.60;99.90;;;;;;5071524;28;20155;-65
2022/04/10 07:15:45;;;;;;;16.02;3.33;;;6.50;99.90;;;;;;5068900;28;20040;-65
2022/04/10 07:18:12;;;;;;;11.55;3.47;;;6.30;99.90;;;;;;5070404;28;20067;-65
2022/04/10 07:20:37;;;;;;;8.55;3.17;;;6.10;99.90;;;;;;5068695;28;20051;-65
2022/04/10 07:25:47;;;;;;;6.03;3.03;;;5.90;99.90;;;;;;5070185;28;20549;-65
2022/04/10 07:28:13;;;;;;;6.45;2.60;;;5.70;99.90;;;;;;5070126;28;20083;-64
2022/04/10 07:30:39;;;;;;;16.42;3.30;;;5.60;99.90;;;;;;5070273;28;20043;-65
2022/04/10 07:33:06;;;;;;;10.68;2.80;;;5.50;99.90;;;;;;5067182;28;20089;-64
2022/04/10 07:35:34;;;;;;;5.10;2.70;;;5.60;99.90;;;;;;5062002;28;20060;-64
2022/04/10 07:38:00;;;;;;;7.45;2.65;;;6.00;99.90;;;;;;5071736;28;20041;-65
2022/04/10 07:40:26;;;;;;;12.75;4.47;;;6.40;99.90;;;;;;5070123;28;20052;-65
2022/04/10 07:42:52;;;;;;;7.97;3.15;;;6.70;99.90;;;;;;5066677;28;20053;-66
2022/04/10 07:48:03;;;;;;;6.45;2.80;;;7.30;99.90;;;;;;5062431;28;20049;-65
2022/04/10 07:50:29;;;;;;;7.32;3.15;;;7.40;99.90;;;;;;5070797;28;20125;-65
2022/04/10 07:52:55;;;;;;;6.93;3.53;;;7.50;99.90;;;;;;5069114;28;20076;-65
2022/04/10 07:55:22;;;;;;;5.75;2.70;;;7.50;99.90;;;;;;5070428;28;20064;-65
2022/04/10 07:57:51;;;;;;;9.95;3.47;;;7.40;99.90;;;;;;5069817;28;20036;-65
2022/04/10 08:00:17;;;;;;;8.38;3.15;;;7.40;99.90;;;;;;5068131;28;20106;-65
2022/04/10 08:02:47;;;;;;;10.13;3.85;;;7.40;99.90;;;;;;5066130;28;20037;-65
2022/04/10 08:05:14;;;;;;;10.65;3.85;;;7.80;99.90;;;;;;5069906;28;20049;-65
2022/04/10 08:07:41;;;;;;;6.45;2.85;;;8.00;99.90;;;;;;5068626;28;20048;-65
2022/04/10 08:10:08;;;;;;;25.30;3.88;;;8.20;99.90;;;;;;5069442;28;20111;-65
2022/04/10 08:12:34;;;;;;;12.57;3.63;;;8.60;99.90;;;;;;5066869;28;20092;-65
2022/04/10 08:15:00;;;;;;;10.32;3.65;;;8.80;99.90;;;;;;5051294;28;20600;-64
2022/04/10 08:17:25;;;;;;;10.23;3.05;;;8.90;99.90;;;;;;5068497;28;20048;-65
2022/04/10 08:19:51;;;;;;;13.93;3.72;;;9.10;99.90;;;;;;5069709;28;20080;-63
2022/04/10 08:22:26;;;;;;;10.20;3.10;;;9.40;99.90;;;;;;5069747;28;20501;-64
2022/04/10 08:24:52;;;;;;;10.85;3.95;;;9.30;99.90;;;;;;5069829;28;20425;-64
2022/04/10 08:27:18;;;;;;;8.18;3.72;;;9.50;99.90;;;;;;5069068;28;20040;-64
2022/04/10 08:29:44;;;;;;;4.35;2.85;;;9.40;99.90;;;;;;5049706;28;20052;-64
2022/04/10 08:32:09;;;;;;;18.55;3.70;;;9.40;99.90;;;;;;5064868;28;20090;-64
2022/04/10 08:34:35;;;;;;;11.63;3.33;;;9.60;99.90;;;;;;5069093;28;20051;-63
2022/04/10 08:37:05;;;;;;;13.80;2.97;;;9.60;99.90;;;;;;5067829;28;20033;-63
2022/04/10 08:39:34;;;;;;;11.82;3.28;;;9.70;99.90;;;;;;5064002;28;20051;-63
2022/04/10 08:42:08;;;;;;;12.98;3.55;;;9.90;99.90;;;;;;5068004;28;20078;-64
2022/04/10 08:44:35;;;;;;;15.23;3.92;;;9.90;99.90;;;;;;5065298;28;20059;-65
2022/04/10 08:47:01;;;;;;;6.63;2.42;;;9.80;99.90;;;;;;5065909;28;20051;-64
2022/04/10 08:49:29;;;;;;;13.95;4.38;;;9.90;99.90;;;;;;5068155;28;20072;-64
2022/04/10 08:51:57;;;;;;;16.42;3.20;;;9.80;99.90;;;;;;5062830;28;20045;-64
2022/04/10 08:54:23;;;;;;;9.95;3.47;;;9.90;99.90;;;;;;5064923;28;20181;-64
2022/04/10 08:56:51;;;;;;;8.90;3.85;;;10.20;99.90;;;;;;5047921;28;20053;-64
2022/04/10 08:59:20;;;;;;;8.68;2.85;;;10.40;99.90;;;;;;5062963;28;20083;-64
2022/04/10 09:01:46;;;;;;;15.10;2.95;;;10.40;99.90;;;;;;5059586;28;20036;-64
2022/04/10 09:04:15;;;;;;;11.13;3.10;;;10.40;99.90;;;;;;5069414;28;20139;-64
2022/04/10 09:06:41;;;;;;;8.00;3.10;;;10.40;99.90;;;;;;5061069;28;20128;-64
2022/04/10 09:09:16;;;;;;;10.13;3.47;;;10.70;99.90;;;;;;5069138;28;20115;-63
2022/04/10 09:11:43;;;;;;;10.82;3.35;;;10.70;99.90;;;;;;5063021;28;20047;-63
2022/04/10 09:14:09;;;;;;;9.05;3.45;;;10.90;99.90;;;;;;5068155;28;20060;-64
2022/04/10 09:16:34;;;;;;;13.88;3.80;;;11.00;99.90;;;;;;5067770;28;20473;-64
2022/04/10 09:19:06;;;;;;;14.02;3.63;;;11.00;99.90;;;;;;5069360;28;20068;-64
2022/04/10 09:21:34;;;;;;;10.30;3.25;;;11.00;99.90;;;;;;5067554;28;20055;-64
2022/04/10 09:24:13;;;;;;;13.15;3.85;;;10.90;99.90;;;;;;5067431;28;20041;-64
2022/04/10 09:26:47;;;;;;;21.45;4.63;;;10.90;99.90;;;;;;5065808;28;20139;-65
2022/04/10 09:29:14;;;;;;;16.60;4.35;;;10.70;99.90;;;;;;5069191;28;20060;-64
2022/04/10 09:31:40;;;;;;;18.15;3.60;;;10.50;99.90;;;;;;5066840;28;20514;-64
2022/04/10 09:34:11;;;;;;;9.00;4.18;;;10.30;99.90;;;;;;5067959;28;20051;-64
2022/04/10 09:36:39;;;;;;;10.77;3.38;;;10.40;99.90;;;;;;5066283;28;20047;-64
2022/04/10 09:39:10;;;;;;;10.63;2.95;;;10.60;99.90;;;;;;5068406;28;20101;-64
2022/04/10 09:41:37;;;;;;;12.60;3.55;;;10.60;99.90;;;;;;5068212;28;20045;-64
2022/04/10 09:44:22;;;;;;;11.38;3.00;;;10.70;99.90;;;;;;5068635;28;20075;-64
2022/04/10 09:47:07;;;;;;;14.27;3.53;;;10.80;92.90;;;;;;5064512;28;20044;-63
2022/04/10 09:49:37;;;;;;;10.20;4.00;;;10.70;91.80;;;;;;5068814;28;20036;-64
2022/04/10 09:52:12;;;;;;;12.32;3.28;;;10.80;99.90;;;;;;5064386;28;20066;-64
2022/04/10 09:54:51;;;;;;;10.05;4.80;;;11.00;96.70;;;;;;5063988;28;20056;-63
2022/04/10 09:57:20;;;;;;;4.65;2.80;;;11.20;98.60;;;;;;5062371;28;20044;-63
2022/04/10 09:59:49;;;;;;;;;;;11.30;99.80;;;;;;5061314;28;20033;-63
2022/04/10 10:02:20;;;;;;;11.57;3.25;;;11.30;94.40;;;;;;5064957;28;20017;-63
2022/04/10 10:04:47;;;;;;;9.60;2.75;;;11.30;98.10;;;;;;5066453;28;20489;-63
2022/04/10 10:07:16;;;;;;;19.02;4.25;;;11.20;97.80;;;;;;5046690;28;20497;-63
2022/04/10 10:09:43;;;;;;;6.05;2.22;;;11.10;95.10;;;;;;5061755;28;20134;-64
2022/04/10 10:12:10;;;;;;;6.93;2.33;;;11.00;93.00;;;;;;5067793;28;20054;-64
2022/04/10 10:14:36;;;;;;;4.95;2.30;;;10.90;91.50;;;;;;5065312;28;20123;-64
2022/04/10 10:17:04;;;;;;;9.43;2.20;;;11.20;91.30;;;;;;5066801;28;20709;-64
2022/04/10 10:19:35;;;;;;;4.90;2.38;;;11.30;91.60;;;;;;5067506;28;20052;-62
2022/04/10 10:22:04;;;;;;;10.05;3.25;;;11.50;90.20;;;;;;5065468;28;20049;-62
2022/04/10 10:24:50;;;;;;;4.32;2.30;;;11.50;90.50;;;;;;5064704;28;20119;-63
2022/04/10 10:27:40;;;;;;;9.32;2.75;;;11.70;91.40;;;;;;5062374;28;20051;-63
2022/04/10 10:30:18;;;;;;;4.95;1.98;;;11.80;87.50;;;;;;5067943;28;20559;-63
2022/04/10 10:32:47;;;;;;;6.78;2.40;;;11.70;90.10;;;;;;5064988;28;20044;-64
2022/04/10 10:35:31;;;;;;;10.50;2.92;;;11.60;90.40;;;;;;5062169;28;20044;-64
2022/04/10 10:37:57;;;;;;;6.47;2.65;;;11.30;90.10;;;;;;5066629;28;20037;-63
2022/04/10 10:40:23;;;;;;;8.25;3.35;;;11.10;91.90;;;;;;5067003;28;20047;-64
2022/04/10 10:42:50;;;;;;;9.23;4.13;;;10.80;95.30;;;;;;5047845;28;20501;-64
2022/04/10 10:45:37;;;;;;;24.02;4.90;;;10.60;97.80;;;;;;5068154;28;20502;-64
2022/04/10 10:48:23;;;;;;;10.00;3.65;;;10.90;98.30;;;;;;5065289;28;20489;-66
2022/04/10 10:50:50;;;;;;;14.25;4.70;;;11.10;96.50;;;;;;5060406;28;20076;-64
2022/04/10 10:53:20;;;;;;;13.48;3.47;;;11.10;96.70;;;;;;5064475;28;20036;-64
2022/04/10 10:55:49;;;;;;;10.98;3.58;;;11.40;98.80;;;;;;5060072;28;20138;-65
2022/04/10 10:58:18;;;;;;;13.23;3.50;;;11.40;96.90;;;;;;5064357;28;20045;-64
2022/04/10 11:00:45;;;;;;;9.98;3.13;;;11.80;99.00;;;;;;5064311;28;20051;-65
2022/04/10 11:03:11;;;;;;;7.43;3.22;;;12.00;96.10;;;;;;5066555;28;20119;-65
2022/04/10 11:05:38;;;;;;;19.95;3.85;;;12.10;94.40;;;;;;5066794;28;20195;-65
2022/04/10 11:08:08;;;;;;;17.73;4.28;;;12.10;94.30;;;;;;5067356;28;20091;-65
2022/04/10 11:10:38;;;;;;;5.70;3.40;;;12.00;93.20;;;;;;5062284;28;20052;-65
2022/04/10 11:13:09;;;;;;;10.02;2.72;;;11.90;92.90;;;;;;5050210;28;20049;-65
2022/04/10 11:15:49;;;;;;;9.23;3.00;;;11.70;93.10;;;;;;5066823;28;20842;-64
2022/04/10 11:18:24;;;;;;;12.43;3.75;;;11.70;93.00;;;;;;5064224;28;20060;-65
2022/04/10 11:21:14;;;;;;;8.07;3.38;;;11.90;94.50;;;;;;5064807;28;20076;-65
2022/04/10 11:23:44;;;;;;;11.77;3.30;;;12.00;93.30;;;;;;5064754;28;20048;-64
2022/04/10 11:26:13;;;;;;;6.18;2.78;;;12.00;93.20;;;;;;5064445;28;20047;-64
2022/04/10 11:29:06;;;;;;;11.77;3.97;;;11.80;91.10;;;;;;5068607;28;20093;-64
2022/04/10 11:31:42;;;;;;;12.07;3.38;;;11.70;91.90;;;;;;5071300;28;20517;-64
2022/04/10 11:34:22;;;;;;;11.50;3.72;;;11.60;91.20;;;;;;5071633;28;20032;-65
2022/04/10 11:36:47;;;;;;;11.77;3.67;;;11.80;92.80;;;;;;5066830;28;20048;-65
2022/04/10 11:39:14;;;;;;;10.15;3.15;;;12.10;94.30;;;;;;5067259;28;20041;-66
2022/04/10 11:41:42;;;;;;;4.43;2.63;;;12.40;94.70;;;;;;5068986;28;20052;-65
2022/04/10 11:44:08;;;;;;;13.30;4.22;;;12.40;91.20;;;;;;5068018;28;20060;-65
2022/04/10 11:46:34;;;;;;;4.57;2.28;;;12.40;88.20;;;;;;5070935;28;20515;-65
2022/04/10 11:49:01;;;;;;;7.15;3.75;;;12.40;85.40;;;;;;5068699;28;20044;-65
2022/04/10 11:51:27;;;;;;;8.85;2.75;;;12.30;84.10;;;;;;5063609;28;20044;-65
2022/04/10 11:53:59;;;;;;;5.78;2.78;;;12.30;89.00;;;;;;5070701;28;20047;-65
2022/04/10 11:56:25;;;;;;;13.82;3.45;;;12.00;85.70;;;;;;5065866;28;20497;-65
2022/04/10 11:58:51;;;;;;;7.05;3.00;;;11.90;90.80;;;;;;5068793;28;20049;-65
2022/04/10 12:01:20;;;;;;;5.90;2.70;;;11.60;92.90;;;;;;5064044;28;20383;-64
2022/04/10 12:03:49;;;;;;;19.73;5.25;;;11.60;93.10;;;;;;5065837;28;20041;-64
2022/04/10 12:06:21;;;;;;;11.13;4.30;;;11.70;95.60;;;;;;5066375;28;20501;-65
2022/04/10 12:08:48;;;;;;;10.82;3.40;;;11.80;95.70;;;;;;5070086;28;20041;-64
2022/04/10 12:11:14;;;;;;;14.98;3.75;;;11.90;95.30;;;;;;5070188;28;20052;-65
2022/04/10 12:13:40;;;;;;;17.58;3.63;;;12.00;95.00;;;;;;5066649;28;20040;-65
2022/04/10 12:16:10;;;;;;;15.00;3.30;;;12.30;95.80;;;;;;5070036;28;20043;-65
2022/04/10 12:19:05;;;;;;;10.57;3.63;;;12.50;93.10;;;;;;5070092;28;20055;-65
2022/04/10 12:21:31;;;;;;;10.55;3.25;;;12.70;91.70;;;;;;5071090;28;20143;-65
2022/04/10 12:24:00;;;;;;;10.30;3.53;;;12.70;88.40;;;;;;5067048;28;20127;-65
2022/04/10 12:26:28;;;;;;;16.45;3.50;;;12.90;88.20;;;;;;5068531;28;20044;-65
2022/04/10 12:28:55;;;;;;;5.50;2.65;;;13.10;90.20;;;;;;5061783;28;20137;-65
2022/04/10 12:31:21;;;;;;;4.70;2.75;;;13.30;87.10;;;;;;5069858;28;20048;-65
2022/04/10 12:33:47;;;;;;;12.32;3.88;;;13.20;84.90;;;;;;5068776;28;20123;-65
2022/04/10 12:36:21;;;;;;;11.30;4.43;;;13.30;86.30;;;;;;5067992;28;20409;-65
2022/04/10 12:38:55;;;;;;;16.77;3.40;;;13.40;86.00;;;;;;5066314;28;20059;-65
2022/04/10 12:41:29;;;;;;;8.93;4.20;;;13.30;85.40;;;;;;5062212;28;20044;-65
2022/04/10 12:44:05;;;;;;;9.82;3.42;;;13.40;84.00;;;;;;5068302;28;20495;-65
2022/04/10 12:46:35;;;;;;;11.20;3.60;;;13.20;82.80;;;;;;5067953;28;20098;-65
2022/04/10 12:49:11;;;;;;;10.70;3.20;;;13.20;81.40;;;;;;5067002;28;20123;-65
2022/04/10 12:51:54;;;;;;;9.52;4.00;;;13.30;75.90;;;;;;5065555;28;20041;-65
2022/04/10 12:54:42;;;;;;;10.10;3.60;;;13.30;80.90;;;;;;5063740;28;20048;-65
2022/04/10 12:57:10;;;;;;;4.20;2.75;;;13.40;77.80;;;;;;5069095;28;20513;-65